Decoded Metar for LFBM (MONT-DE-MARSAN in FRANCE) (IATA:N/A) | Meteo·Mobile Aviation Weather
aviador You're here:

LFBM Decoded Metar

MONT-DE-MARSAN in FRANCE
Report Time2018-11-12 21:30:00
UTC Time2018-11-12 22:02:32
Flight Rules ifr IFR
Wind320° at 05 kt
W.Decomp.*RWY 27: 3.2 kt HW 3.8 kt RCW
W.Rank320° ranks 14
Current wind is below 320° avg. (6.3)
Visibility9999 m
Phenomena:N/A
Clouds:Broken 006 Hf
Overcast 041 Hf
Expected CloudBase > 400 ft AGL from Temp-Dew spread
Ceiling600 ft
Temp12°C (ISA -3)
Dew Point11°C (94% RH)
AAT10.5°C
QNH1022 hPa
Density Alt-230 ft
Elevation207 ft
Report Wrong Elevation
Raw Report
LFBM 122130Z AUTO 32005KT 9999 BKN006 OVC041 12/11 Q1022 BECMG
4500 RADZ=

Extra information for LFBM:More info

Metar Taf Metar & Taf Last 4 Metars F.Rules Stats Wind Profile Meteogram Temp Stats Airport Information Weather charts Add Link Nearby VenuesMetar ALERT Operation Metar Decoded Social comments